Time;durP1;ratioP1;P1;durP2;ratioP2;P2;SDS_P1;SDS_P2;PMS_P1;PMS_P2;Temp;Humidity;BMP_temperature;BMP_pressure;BME280_temperature;BME280_humidity;BME280_pressure;Samples;Min_cycle;Max_cycle;Signal;HPM_P1;HPM_P2
2023/04/19 00:01:42;;;;;;;14.35;12.30;;;11.50;99.90;;;;;;6229373;28;20053;-78
2023/04/19 00:04:44;;;;;;;15.95;12.50;;;11.40;99.90;;;;;;6227895;28;20041;-79
2023/04/19 00:07:47;;;;;;;18.60;12.77;;;11.40;99.90;;;;;;6228632;28;20448;-79
2023/04/19 00:10:49;;;;;;;16.85;13.40;;;11.40;99.90;;;;;;6229337;28;20042;-78
2023/04/19 00:14:03;;;;;;;17.05;13.45;;;11.40;99.90;;;;;;6226979;28;20425;-79
2023/04/19 00:17:05;;;;;;;18.02;12.90;;;11.40;99.90;;;;;;6227087;28;20045;-79
2023/04/19 00:20:07;;;;;;;17.25;11.25;;;11.30;99.90;;;;;;6228024;28;20126;-79
2023/04/19 00:23:10;;;;;;;17.65;11.98;;;11.30;99.90;;;;;;6220224;28;20105;-78
2023/04/19 00:26:14;;;;;;;17.92;13.70;;;11.30;99.90;;;;;;6207261;28;20053;-78
2023/04/19 00:29:16;;;;;;;17.00;12.70;;;11.30;99.90;;;;;;6204140;28;20061;-78
2023/04/19 00:32:17;;;;;;;18.75;12.20;;;11.20;99.90;;;;;;6202760;28;20050;-78
2023/04/19 00:35:19;;;;;;;19.85;13.75;;;11.20;99.90;;;;;;6195488;28;20058;-78
2023/04/19 00:38:22;;;;;;;15.38;13.70;;;11.20;99.90;;;;;;6180797;28;20051;-78
2023/04/19 00:41:24;;;;;;;17.48;12.93;;;11.20;99.90;;;;;;6203282;28;20496;-79
2023/04/19 00:44:26;;;;;;;17.35;12.55;;;11.20;99.90;;;;;;6202559;28;20531;-78
2023/04/19 00:47:28;;;;;;;19.15;13.85;;;11.20;99.90;;;;;;6203385;28;20051;-79
2023/04/19 00:50:30;;;;;;;15.48;11.88;;;11.10;99.90;;;;;;6202091;28;20047;-78
2023/04/19 00:53:33;;;;;;;17.58;12.75;;;11.10;99.90;;;;;;6202683;28;20046;-78
2023/04/19 00:56:35;;;;;;;21.77;13.98;;;11.10;99.90;;;;;;6202733;28;20057;-78
2023/04/19 00:59:38;;;;;;;19.23;12.65;;;11.10;99.90;;;;;;6202570;28;20042;-78
2023/04/19 01:02:40;;;;;;;15.68;11.85;;;11.10;99.90;;;;;;6201566;28;20142;-79
2023/04/19 01:05:42;;;;;;;14.27;11.43;;;11.10;99.90;;;;;;6203755;28;20064;-78
2023/04/19 01:08:45;;;;;;;19.52;13.48;;;11.10;99.90;;;;;;6200596;28;20524;-78
2023/04/19 01:11:46;;;;;;;15.65;11.20;;;11.10;99.90;;;;;;6212004;28;20704;-77
2023/04/19 01:14:50;;;;;;;16.35;10.85;;;11.00;99.90;;;;;;6214158;28;20050;-78
2023/04/19 01:17:51;;;;;;;19.90;12.13;;;11.00;99.90;;;;;;6211444;28;20057;-78
2023/04/19 01:20:54;;;;;;;14.75;10.93;;;11.00;99.90;;;;;;6202280;28;20046;-78
2023/04/19 01:23:57;;;;;;;16.13;11.88;;;11.00;99.90;;;;;;6201616;28;20425;-79
2023/04/19 01:26:58;;;;;;;17.55;12.63;;;10.90;99.90;;;;;;6200618;28;20763;-78
2023/04/19 01:30:00;;;;;;;18.13;12.48;;;10.90;99.90;;;;;;6201621;28;20417;-78
2023/04/19 01:33:02;;;;;;;18.10;13.18;;;10.90;99.90;;;;;;6203697;28;20050;-79
2023/04/19 01:36:04;;;;;;;20.45;13.07;;;10.90;99.90;;;;;;6202161;28;20129;-79
2023/04/19 01:39:07;;;;;;;15.63;13.32;;;10.90;99.90;;;;;;6202214;28;20610;-78
2023/04/19 01:42:09;;;;;;;18.75;12.40;;;10.90;99.90;;;;;;6202952;28;20050;-79
2023/04/19 01:45:11;;;;;;;16.45;12.23;;;10.90;99.90;;;;;;6177986;28;20047;-78
2023/04/19 01:48:13;;;;;;;14.13;11.32;;;10.80;99.90;;;;;;6178089;28;20497;-79
2023/04/19 01:51:16;;;;;;;15.43;12.73;;;10.80;99.90;;;;;;6177789;28;20552;-78
2023/04/19 01:54:19;;;;;;;19.40;14.65;;;10.80;99.90;;;;;;6177721;28;20049;-78
2023/04/19 01:57:20;;;;;;;17.95;12.98;;;10.80;99.90;;;;;;6178807;28;20062;-79
2023/04/19 02:00:22;;;;;;;15.40;12.20;;;10.80;99.90;;;;;;6177824;28;20055;-78
2023/04/19 02:03:24;;;;;;;18.73;13.10;;;10.70;99.90;;;;;;6176699;28;20501;-78
2023/04/19 02:06:26;;;;;;;21.70;14.95;;;10.70;99.90;;;;;;6177313;28;20133;-78
2023/04/19 02:09:29;;;;;;;18.98;13.05;;;10.70;99.90;;;;;;6178073;28;20058;-79
2023/04/19 02:12:32;;;;;;;18.70;11.52;;;10.70;99.90;;;;;;6178260;28;20053;-78
2023/04/19 02:15:36;;;;;;;19.00;13.68;;;10.70;99.90;;;;;;6176961;28;20424;-79
2023/04/19 02:18:38;;;;;;;20.60;12.73;;;10.70;99.90;;;;;;6176554;28;20047;-78
2023/04/19 02:21:39;;;;;;;15.65;12.02;;;10.70;99.90;;;;;;6191049;28;20053;-79
2023/04/19 02:24:42;;;;;;;19.17;14.38;;;10.60;99.90;;;;;;6208169;28;20050;-78
2023/04/19 02:27:44;;;;;;;16.80;13.82;;;10.60;99.90;;;;;;6223129;28;20050;-78
2023/04/19 02:30:46;;;;;;;19.38;14.48;;;10.60;99.90;;;;;;6231909;28;20042;-77
2023/04/19 02:33:47;;;;;;;17.00;11.82;;;10.60;99.90;;;;;;6211783;28;20049;-78
2023/04/19 02:36:49;;;;;;;19.52;12.82;;;10.60;99.90;;;;;;6232145;28;20056;-78
2023/04/19 02:39:52;;;;;;;18.83;14.90;;;10.60;99.90;;;;;;6221843;28;20050;-78
2023/04/19 02:42:54;;;;;;;18.42;14.45;;;10.60;99.90;;;;;;6189879;28;20046;-78
2023/04/19 02:45:56;;;;;;;18.23;13.38;;;10.50;99.90;;;;;;6187204;28;20137;-78
2023/04/19 02:49:00;;;;;;;15.88;11.95;;;10.60;99.90;;;;;;6210248;28;20048;-78
2023/04/19 02:52:01;;;;;;;22.33;16.15;;;10.50;99.90;;;;;;6197317;28;20051;-78
2023/04/19 02:55:06;;;;;;;19.17;13.68;;;10.50;99.90;;;;;;6189490;28;20046;-77
2023/04/19 02:58:07;;;;;;;26.33;15.85;;;10.50;99.90;;;;;;6190451;28;20063;-78
2023/04/19 03:01:09;;;;;;;17.63;13.30;;;10.50;99.90;;;;;;6190626;28;20043;-78
2023/04/19 03:04:11;;;;;;;18.55;13.75;;;10.50;99.90;;;;;;6187286;28;20047;-78
2023/04/19 03:07:14;;;;;;;19.77;13.73;;;10.50;99.90;;;;;;6175400;28;20097;-78
2023/04/19 03:10:17;;;;;;;19.80;14.02;;;10.50;99.90;;;;;;6175189;28;20069;-78
2023/04/19 03:13:19;;;;;;;20.92;14.30;;;10.50;99.90;;;;;;6176874;28;20047;-79
2023/04/19 03:16:20;;;;;;;15.32;11.70;;;10.50;99.90;;;;;;6175892;28;20047;-78
2023/04/19 03:19:22;;;;;;;23.85;14.38;;;10.50;99.90;;;;;;6175670;28;20203;-78
2023/04/19 03:22:24;;;;;;;16.75;13.27;;;10.50;99.90;;;;;;6175568;28;20126;-78
2023/04/19 03:25:27;;;;;;;16.98;11.63;;;10.50;99.90;;;;;;6177377;28;20061;-78
2023/04/19 03:28:28;;;;;;;17.70;12.10;;;10.50;99.90;;;;;;6185751;28;20054;-78
2023/04/19 03:31:30;;;;;;;19.15;13.00;;;10.50;99.90;;;;;;6186384;28;20046;-79
2023/04/19 03:34:32;;;;;;;19.30;14.00;;;10.50;99.90;;;;;;6179361;28;20053;-77
2023/04/19 03:37:34;;;;;;;17.20;13.60;;;10.40;99.90;;;;;;6177613;28;20595;-77
2023/04/19 03:40:38;;;;;;;20.33;13.65;;;10.40;99.90;;;;;;6177292;28;20050;-77
2023/04/19 03:43:39;;;;;;;19.17;12.05;;;10.40;99.90;;;;;;6177100;28;20047;-78
2023/04/19 03:46:41;;;;;;;21.63;17.05;;;10.40;99.90;;;;;;6177332;28;20054;-77
2023/04/19 03:49:42;;;;;;;16.23;11.40;;;10.40;99.90;;;;;;6177410;28;20054;-77
2023/04/19 03:52:44;;;;;;;17.58;13.43;;;10.40;99.90;;;;;;6176469;28;20039;-78
2023/04/19 03:55:47;;;;;;;14.38;11.80;;;10.40;99.90;;;;;;6176753;28;20051;-78
2023/04/19 03:58:50;;;;;;;17.98;13.57;;;10.30;99.90;;;;;;6177804;28;20688;-78
2023/04/19 04:01:52;;;;;;;15.07;11.85;;;10.30;99.90;;;;;;6178515;28;20060;-78
2023/04/19 04:04:54;;;;;;;17.70;12.25;;;10.40;99.90;;;;;;6179571;28;20050;-78
2023/04/19 04:07:56;;;;;;;15.23;11.15;;;10.40;99.90;;;;;;6180348;28;20054;-78
2023/04/19 04:10:59;;;;;;;16.60;11.57;;;10.30;99.90;;;;;;6178542;28;20568;-78
2023/04/19 04:14:01;;;;;;;14.00;10.93;;;10.30;99.90;;;;;;6180912;28;20047;-78
2023/04/19 04:17:02;;;;;;;15.40;10.80;;;10.30;99.90;;;;;;6178397;28;20061;-78
2023/04/19 04:20:06;;;;;;;17.67;11.90;;;10.30;99.90;;;;;;6178312;28;20050;-79
2023/04/19 04:23:08;;;;;;;15.27;11.27;;;10.30;99.90;;;;;;6178730;28;20043;-78
2023/04/19 04:26:12;;;;;;;12.90;10.77;;;10.30;99.90;;;;;;6202877;28;20057;-80
2023/04/19 04:29:14;;;;;;;14.00;10.35;;;10.30;99.90;;;;;;6215044;28;20064;-78
2023/04/19 04:32:17;;;;;;;17.23;11.27;;;10.30;99.90;;;;;;6220236;28;20045;-78
2023/04/19 04:35:19;;;;;;;14.63;11.93;;;10.30;99.90;;;;;;6200425;28;20069;-78
2023/04/19 04:38:21;;;;;;;15.75;11.77;;;10.30;99.90;;;;;;6199910;28;20185;-78
2023/04/19 04:41:24;;;;;;;15.52;12.18;;;10.30;99.90;;;;;;6202145;28;20046;-78
2023/04/19 04:44:26;;;;;;;13.63;9.63;;;10.30;99.90;;;;;;6203494;28;20571;-78
2023/04/19 04:47:31;;;;;;;12.90;9.90;;;10.30;99.90;;;;;;6205413;28;20046;-78
2023/04/19 04:50:33;;;;;;;17.70;11.55;;;10.30;99.90;;;;;;6204159;28;20050;-78
2023/04/19 04:53:35;;;;;;;13.13;11.50;;;10.30;99.90;;;;;;6205610;28;20058;-79
2023/04/19 04:56:38;;;;;;;14.38;10.60;;;10.30;99.90;;;;;;6209130;28;20042;-81
2023/04/19 04:59:39;;;;;;;12.20;10.25;;;10.30;99.90;;;;;;6188572;28;20058;-78
2023/04/19 05:02:41;;;;;;;13.93;10.20;;;10.30;99.90;;;;;;6202854;28;20045;-79
2023/04/19 05:05:43;;;;;;;15.18;9.60;;;10.30;99.90;;;;;;6202018;28;20046;-78
2023/04/19 05:08:45;;;;;;;15.05;10.50;;;10.30;99.90;;;;;;6201934;28;20054;-78
2023/04/19 05:11:48;;;;;;;16.63;11.40;;;10.30;99.90;;;;;;6202301;28;20086;-78
2023/04/19 05:14:49;;;;;;;12.80;10.30;;;10.30;99.90;;;;;;6202702;28;20050;-79
2023/04/19 05:17:51;;;;;;;13.85;9.98;;;10.30;99.90;;;;;;6204364;28;20058;-79
2023/04/19 05:20:53;;;;;;;16.08;11.20;;;10.40;99.90;;;;;;6202317;28;20042;-79
2023/04/19 05:23:54;;;;;;;12.32;9.57;;;10.40;99.90;;;;;;6202885;28;20050;-79
2023/04/19 05:26:57;;;;;;;16.67;11.25;;;10.40;99.90;;;;;;6203579;28;20489;-78
2023/04/19 05:29:59;;;;;;;15.35;10.63;;;10.50;99.90;;;;;;6201372;28;20054;-78
2023/04/19 05:33:01;;;;;;;17.40;11.10;;;10.50;99.90;;;;;;6199729;28;20061;-78
2023/04/19 05:36:03;;;;;;;13.10;9.68;;;10.60;99.90;;;;;;6198965;28;20441;-78
2023/04/19 05:39:05;;;;;;;14.57;10.80;;;10.70;99.90;;;;;;6199176;28;20046;-78
2023/04/19 05:42:08;;;;;;;14.77;10.50;;;10.70;99.90;;;;;;6199565;28;20177;-78
2023/04/19 05:45:11;;;;;;;12.95;10.68;;;10.80;99.90;;;;;;6201796;28;20053;-78
2023/04/19 05:48:12;;;;;;;13.73;10.38;;;10.80;99.90;;;;;;6202654;28;20046;-78
2023/04/19 05:51:16;;;;;;;10.68;8.82;;;10.90;99.90;;;;;;6198932;28;20053;-78
2023/04/19 05:54:17;;;;;;;13.40;10.65;;;10.90;99.90;;;;;;6198367;28;20078;-78
2023/04/19 05:57:23;;;;;;;12.02;10.48;;;11.00;99.90;;;;;;6199425;28;20050;-78
2023/04/19 06:00:24;;;;;;;13.35;11.82;;;11.30;99.90;;;;;;6197002;28;20050;-78
2023/04/19 06:03:26;;;;;;;14.88;11.70;;;11.40;99.90;;;;;;6198280;28;20436;-78
2023/04/19 06:06:28;;;;;;;12.70;10.35;;;11.50;99.90;;;;;;6198629;28;20054;-78
2023/04/19 06:09:30;;;;;;;17.52;12.18;;;11.50;99.90;;;;;;6198923;28;20053;-79
2023/04/19 06:12:33;;;;;;;13.20;11.80;;;11.60;99.90;;;;;;6198240;28;20046;-78
2023/04/19 06:15:35;;;;;;;11.40;9.35;;;11.70;99.90;;;;;;6198155;28;20053;-78
2023/04/19 06:18:37;;;;;;;14.02;10.38;;;11.80;99.90;;;;;;6198309;28;20057;-78
2023/04/19 06:21:39;;;;;;;14.20;10.60;;;11.80;99.90;;;;;;6198341;28;20058;-78
2023/04/19 06:24:41;;;;;;;13.10;9.98;;;11.80;99.90;;;;;;6197019;28;20409;-78
2023/04/19 06:27:44;;;;;;;14.35;10.77;;;11.80;99.90;;;;;;6198607;28;20539;-79
2023/04/19 06:30:45;;;;;;;12.98;11.40;;;11.90;99.90;;;;;;6199151;28;20065;-79
2023/04/19 06:33:47;;;;;;;13.65;9.70;;;12.00;99.90;;;;;;6198864;28;20050;-78
2023/04/19 06:36:49;;;;;;;14.57;10.90;;;12.30;99.90;;;;;;6220191;28;20046;-78
2023/04/19 06:39:51;;;;;;;10.32;8.90;;;12.40;99.90;;;;;;6210551;28;20042;-78
2023/04/19 06:42:54;;;;;;;13.60;11.20;;;12.70;99.90;;;;;;6198554;28;20047;-79
2023/04/19 06:45:59;;;;;;;13.95;10.32;;;13.00;99.90;;;;;;6199765;28;20062;-79
2023/04/19 06:49:01;;;;;;;11.38;9.70;;;13.40;99.90;;;;;;6222819;28;20480;-80
2023/04/19 06:52:06;;;;;;;12.52;9.25;;;14.00;99.90;;;;;;6212087;28;20042;-81
2023/04/19 06:55:19;;;;;;;;;;;;;;;;;;;;;
2023/04/19 06:58:22;;;;;;;12.25;9.93;;;15.20;99.90;;;;;;6205834;28;20050;-79
2023/04/19 07:01:23;;;;;;;15.52;10.50;;;15.80;99.90;;;;;;6197857;28;20057;-80
2023/04/19 07:04:27;;;;;;;10.93;9.80;;;16.20;99.90;;;;;;6215693;28;20053;-81
2023/04/19 07:07:29;;;;;;;11.00;9.90;;;16.50;99.90;;;;;;6209274;28;20054;-78
2023/04/19 07:10:30;;;;;;;11.27;9.25;;;17.00;99.90;;;;;;6214518;28;20062;-79
2023/04/19 07:13:33;;;;;;;12.07;9.60;;;17.40;98.90;;;;;;6206637;28;20048;-80
2023/04/19 07:16:35;;;;;;;10.05;8.23;;;17.50;97.80;;;;;;6216043;28;20048;-79
2023/04/19 07:19:36;;;;;;;11.55;8.23;;;17.70;97.30;;;;;;6208773;28;20046;-80
2023/04/19 07:22:38;;;;;;;13.57;9.98;;;18.00;96.50;;;;;;6212911;28;20049;-79
2023/04/19 07:25:40;;;;;;;10.90;8.60;;;18.10;96.20;;;;;;6213343;28;20046;-79
2023/04/19 07:28:43;;;;;;;9.65;7.25;;;18.10;95.50;;;;;;6229552;28;20046;-80
2023/04/19 07:31:44;;;;;;;12.32;9.23;;;18.20;95.30;;;;;;6232110;28;20057;-80
2023/04/19 07:34:46;;;;;;;10.88;8.35;;;18.30;94.40;;;;;;6234452;28;20042;-79
2023/04/19 07:37:48;;;;;;;10.18;9.00;;;18.20;94.50;;;;;;6234195;28;20050;-79
2023/04/19 07:40:49;;;;;;;11.20;9.18;;;18.30;94.30;;;;;;6235705;28;20042;-80
2023/04/19 07:43:52;;;;;;;9.15;8.25;;;18.20;93.60;;;;;;6236754;28;20046;-79
2023/04/19 07:46:54;;;;;;;9.88;8.82;;;18.20;93.50;;;;;;6239249;28;20072;-80
2023/04/19 07:49:56;;;;;;;9.18;8.18;;;18.20;93.40;;;;;;6240026;28;20050;-80
2023/04/19 07:52:58;;;;;;;10.20;8.13;;;18.60;93.80;;;;;;6241381;28;20164;-80
2023/04/19 07:55:59;;;;;;;9.20;8.27;;;19.00;93.90;;;;;;6242349;28;20050;-80
2023/04/19 07:59:02;;;;;;;9.95;8.95;;;19.50;92.30;;;;;;6242646;28;20056;-80
2023/04/19 08:02:04;;;;;;;8.52;7.70;;;19.90;91.60;;;;;;6243022;28;20057;-81
2023/04/19 08:05:07;;;;;;;9.20;7.85;;;20.10;91.00;;;;;;6241235;28;20457;-80
2023/04/19 08:08:09;;;;;;;8.60;7.70;;;20.20;90.10;;;;;;6241201;28;20049;-80
2023/04/19 08:11:11;;;;;;;11.30;7.60;;;20.80;89.70;;;;;;6241393;28;20056;-80
2023/04/19 08:14:14;;;;;;;11.15;7.38;;;21.50;85.10;;;;;;6246417;28;20041;-80
2023/04/19 08:17:19;;;;;;;8.73;7.85;;;21.30;82.70;;;;;;6244810;28;20060;-80
2023/04/19 08:20:22;;;;;;;7.88;7.10;;;20.70;82.30;;;;;;6244009;28;20435;-80
2023/04/19 08:23:23;;;;;;;10.88;7.25;;;20.20;83.10;;;;;;6242386;28;20042;-79
2023/04/19 08:26:25;;;;;;;9.48;7.78;;;20.00;82.30;;;;;;6240950;28;20050;-80
2023/04/19 08:29:28;;;;;;;8.63;7.75;;;19.60;81.70;;;;;;6239958;28;20061;-79
2023/04/19 08:32:30;;;;;;;9.75;7.50;;;19.80;83.10;;;;;;6243588;28;20042;-79
2023/04/19 08:35:31;;;;;;;8.63;7.75;;;20.60;82.50;;;;;;6242664;28;20046;-79
2023/04/19 08:38:33;;;;;;;10.85;8.50;;;21.30;80.90;;;;;;6245153;28;20042;-80
2023/04/19 08:41:35;;;;;;;8.40;7.10;;;21.70;79.20;;;;;;6218560;28;20056;-80
2023/04/19 08:44:39;;;;;;;9.48;8.45;;;22.10;78.70;;;;;;6220560;28;20061;-80
2023/04/19 08:47:41;;;;;;;10.38;6.60;;;22.50;77.40;;;;;;6232153;28;20053;-80
2023/04/19 08:50:44;;;;;;;8.27;7.38;;;22.90;75.10;;;;;;6246254;28;20060;-79
2023/04/19 08:53:48;;;;;;;8.95;6.13;;;22.90;73.80;;;;;;6245943;28;20073;-80
2023/04/19 08:56:50;;;;;;;8.93;6.97;;;22.80;72.10;;;;;;6268140;28;20099;-80
2023/04/19 08:59:54;;;;;;;8.20;7.40;;;21.90;71.10;;;;;;6269062;28;20045;-80
2023/04/19 09:02:57;;;;;;;8.68;6.70;;;21.10;72.20;;;;;;6268955;28;20056;-80
2023/04/19 09:06:01;;;;;;;9.38;8.32;;;20.60;72.50;;;;;;6266185;28;20045;-79
2023/04/19 09:09:15;;;;;;;11.05;7.00;;;19.90;73.50;;;;;;6265994;28;20057;-79
2023/04/19 09:12:17;;;;;;;8.90;7.88;;;19.40;74.30;;;;;;6257931;28;20045;-79
2023/04/19 09:15:46;;;;;;;8.43;7.32;;;18.70;75.50;;;;;;6224189;28;20050;-78
2023/04/19 09:18:56;;;;;;;8.57;7.30;;;18.10;76.80;;;;;;6242590;28;20046;-79
2023/04/19 09:22:11;;;;;;;10.60;8.73;;;17.50;77.60;;;;;;6246961;28;20137;-79
2023/04/19 09:25:24;;;;;;;11.55;8.07;;;17.10;78.60;;;;;;6206514;28;20414;-79
2023/04/19 09:28:27;;;;;;;8.73;7.82;;;16.70;79.90;;;;;;6183350;28;20695;-78
2023/04/19 09:31:31;;;;;;;8.00;7.20;;;16.40;81.30;;;;;;6189713;28;20051;-79
2023/04/19 09:34:33;;;;;;;10.15;8.07;;;16.10;81.60;;;;;;6188602;28;20498;-79
2023/04/19 09:37:35;;;;;;;9.05;7.15;;;15.90;82.40;;;;;;6190719;28;20066;-81
2023/04/19 09:40:37;;;;;;;9.65;7.45;;;15.60;83.50;;;;;;6191197;28;20047;-79
2023/04/19 09:43:39;;;;;;;10.02;9.02;;;15.60;84.70;;;;;;6201079;28;20061;-80
2023/04/19 09:46:44;;;;;;;10.43;8.18;;;15.70;85.30;;;;;;6213325;28;20041;-80
2023/04/19 09:49:46;;;;;;;8.82;7.88;;;15.80;85.80;;;;;;6214514;28;20050;-82
2023/04/19 09:56:37;;;;;;;10.00;8.73;;;15.70;86.50;;;;;;6311558;27;20985;-81
2023/04/19 09:59:39;;;;;;;11.07;9.05;;;15.60;87.10;;;;;;6292972;28;20048;-81
2023/04/19 10:02:41;;;;;;;9.05;7.60;;;15.40;88.00;;;;;;6275623;28;20087;-79
2023/04/19 10:05:44;;;;;;;10.40;8.98;;;15.30;88.80;;;;;;6272425;28;20053;-80
2023/04/19 10:08:48;;;;;;;10.38;8.27;;;15.40;89.30;;;;;;6271233;28;20049;-81
2023/04/19 10:11:53;;;;;;;10.82;8.57;;;15.50;89.60;;;;;;6276003;28;20053;-82
2023/04/19 10:14:59;;;;;;;9.73;7.43;;;15.50;89.70;;;;;;6284262;28;20116;-80
2023/04/19 10:18:01;;;;;;;9.57;7.50;;;15.80;89.90;;;;;;6278156;28;20415;-80
2023/04/19 10:21:07;;;;;;;8.85;7.38;;;16.10;89.40;;;;;;6277747;28;20048;-81
2023/04/19 10:24:10;;;;;;;8.77;7.88;;;16.50;88.80;;;;;;6281199;28;20045;-81
2023/04/19 10:27:13;;;;;;;7.97;7.25;;;16.70;87.50;;;;;;6280616;28;20041;-80
2023/04/19 10:30:19;;;;;;;8.57;7.55;;;16.80;86.30;;;;;;6286310;28;20079;-81
2023/04/19 10:33:25;;;;;;;8.18;7.30;;;17.00;86.50;;;;;;6288734;28;20050;-81
2023/04/19 10:36:27;;;;;;;9.25;7.65;;;17.20;85.70;;;;;;6286451;28;20057;-81
2023/04/19 10:39:42;;;;;;;7.88;6.05;;;17.20;85.00;;;;;;6283920;28;20072;-81
2023/04/19 10:43:17;;;;;;;8.20;7.20;;;17.20;85.50;;;;;;6284667;28;20045;-81
2023/04/19 10:46:38;;;;;;;7.32;5.90;;;17.30;85.80;;;;;;6278890;28;20111;-81
2023/04/19 10:49:45;;;;;;;8.90;7.53;;;17.30;85.60;;;;;;6269345;28;20045;-80
2023/04/19 10:52:47;;;;;;;10.23;7.18;;;17.20;85.40;;;;;;6279277;28;20045;-80
2023/04/19 10:55:50;;;;;;;9.65;7.03;;;17.10;85.80;;;;;;6276647;28;20052;-80
2023/04/19 10:59:22;;;;;;;7.78;6.82;;;16.90;86.30;;;;;;6277862;28;20076;-80
2023/04/19 11:02:29;;;;;;;9.07;8.07;;;16.90;87.00;;;;;;6273945;28;20148;-82
2023/04/19 11:05:51;;;;;;;8.97;7.77;;;16.80;86.70;;;;;;6261728;28;20057;-82
2023/04/19 11:08:53;;;;;;;15.55;7.97;;;16.80;87.10;;;;;;6257297;28;20048;-80
2023/04/19 11:11:58;;;;;;;8.18;7.38;;;16.90;87.00;;;;;;6263964;28;20045;-82
2023/04/19 11:15:02;;;;;;;8.85;7.80;;;16.90;86.60;;;;;;6259106;28;20049;-81
2023/04/19 11:18:04;;;;;;;8.65;7.70;;;16.70;86.80;;;;;;6260386;28;20061;-81
2023/04/19 11:21:05;;;;;;;11.63;8.05;;;16.70;87.10;;;;;;6263881;28;20077;-81
2023/04/19 11:24:08;;;;;;;11.38;8.57;;;16.50;87.20;;;;;;6257009;28;20064;-81
2023/04/19 11:27:09;;;;;;;8.45;6.97;;;16.40;87.60;;;;;;6248206;28;20044;-80
2023/04/19 11:30:15;;;;;;;8.35;7.35;;;16.40;89.10;;;;;;6251526;28;20041;-83
2023/04/19 11:33:23;;;;;;;10.10;7.47;;;16.50;89.20;;;;;;6274405;28;20052;-82
2023/04/19 11:36:24;;;;;;;;;;;16.60;89.40;;;;;;6274804;28;20049;-82
2023/04/19 11:39:26;;;;;;;8.80;7.50;;;16.70;89.30;;;;;;6266191;28;19921;-83
2023/04/19 11:42:28;;;;;;;7.75;6.95;;;16.70;89.30;;;;;;6246090;28;20415;-84
2023/04/19 11:45:33;;;;;;;9.27;7.28;;;16.70;89.60;;;;;;6244747;28;20042;-82
2023/04/19 11:48:35;;;;;;;7.78;6.97;;;16.60;89.10;;;;;;6246801;28;20048;-80
2023/04/19 11:51:42;;;;;;;8.65;7.68;;;16.50;89.60;;;;;;6245521;28;20048;-81
2023/04/19 11:54:45;;;;;;;8.37;7.43;;;16.30;89.90;;;;;;6240486;28;20052;-81
2023/04/19 11:57:48;;;;;;;9.90;8.20;;;16.10;90.10;;;;;;6241726;28;20049;-80
2023/04/19 12:00:51;;;;;;;9.48;7.53;;;16.10;90.20;;;;;;6240982;28;20046;-79
2023/04/19 12:03:55;;;;;;;8.68;7.00;;;15.90;90.50;;;;;;6240207;28;20037;-80
2023/04/19 12:06:58;;;;;;;8.50;7.40;;;15.70;90.70;;;;;;6243007;28;20504;-81
2023/04/19 12:10:09;;;;;;;9.25;7.18;;;15.50;90.90;;;;;;6241430;28;20053;-81
2023/04/19 12:13:17;;;;;;;7.93;6.82;;;15.40;91.60;;;;;;6240963;28;20427;-80
2023/04/19 12:16:28;;;;;;;7.20;6.25;;;15.40;91.60;;;;;;6241706;28;20045;-80
2023/04/19 12:19:35;;;;;;;9.77;7.00;;;15.20;91.80;;;;;;6237874;28;20045;-80
2023/04/19 12:22:37;;;;;;;9.25;7.53;;;15.40;92.10;;;;;;6239645;28;20045;-81
2023/04/19 12:25:39;;;;;;;10.45;8.00;;;15.20;92.30;;;;;;6243880;28;20049;-81
2023/04/19 12:28:41;;;;;;;10.40;9.20;;;15.10;92.60;;;;;;6242901;28;20093;-80
2023/04/19 12:31:44;;;;;;;9.35;8.35;;;15.00;93.20;;;;;;6242597;28;20053;-80
2023/04/19 12:34:46;;;;;;;10.55;9.35;;;14.80;93.90;;;;;;6239399;28;20037;-79
2023/04/19 12:37:47;;;;;;;10.30;9.27;;;14.70;94.30;;;;;;6239012;28;20045;-80
2023/04/19 12:40:49;;;;;;;11.98;8.02;;;14.60;94.80;;;;;;6239252;28;20080;-81
2023/04/19 12:43:51;;;;;;;14.20;10.20;;;14.50;95.20;;;;;;6236415;28;20074;-80
2023/04/19 12:46:56;;;;;;;12.30;10.02;;;14.40;95.40;;;;;;6237706;28;20049;-80
2023/04/19 12:49:57;;;;;;;17.02;11.13;;;14.40;95.70;;;;;;6240728;28;20050;-81
2023/04/19 12:52:59;;;;;;;11.55;10.10;;;14.20;96.10;;;;;;6237025;28;20037;-81
2023/04/19 12:56:01;;;;;;;13.55;10.95;;;14.20;96.60;;;;;;6239269;28;20041;-79
2023/04/19 12:59:03;;;;;;;12.85;10.50;;;14.10;97.20;;;;;;6238321;28;20049;-81
2023/04/19 13:02:06;;;;;;;12.40;11.10;;;14.00;97.70;;;;;;6238005;28;20062;-80
2023/04/19 13:05:10;;;;;;;13.43;10.35;;;13.90;98.20;;;;;;6238796;28;20540;-82
2023/04/19 13:08:12;;;;;;;11.27;10.15;;;13.80;98.70;;;;;;6240849;28;20041;-81
2023/04/19 13:11:13;;;;;;;13.88;12.38;;;13.60;99.10;;;;;;6242307;28;20056;-80
2023/04/19 13:14:15;;;;;;;14.05;10.52;;;13.50;99.80;;;;;;6241056;28;20053;-80
2023/04/19 13:17:18;;;;;;;14.23;10.75;;;13.40;99.90;;;;;;6240010;28;20056;-83
2023/04/19 13:20:20;;;;;;;12.77;11.02;;;13.30;99.90;;;;;;6241424;28;20075;-79
2023/04/19 13:23:22;;;;;;;11.52;10.32;;;13.30;99.90;;;;;;6242034;28;20049;-82
2023/04/19 13:26:23;;;;;;;13.45;11.75;;;13.30;99.90;;;;;;6238065;28;20400;-80
2023/04/19 13:29:25;;;;;;;12.38;11.15;;;13.30;99.90;;;;;;6240856;28;20850;-82
2023/04/19 13:32:29;;;;;;;12.88;11.40;;;13.30;99.90;;;;;;6240979;28;20508;-80
2023/04/19 13:35:30;;;;;;;13.63;9.70;;;13.30;99.90;;;;;;6242822;28;20037;-81
2023/04/19 13:38:32;;;;;;;13.65;11.13;;;13.20;99.90;;;;;;6245887;28;20060;-81
2023/04/19 13:41:34;;;;;;;17.38;11.63;;;13.20;99.90;;;;;;6246545;28;20053;-81
2023/04/19 13:44:36;;;;;;;15.23;11.38;;;13.20;99.90;;;;;;6243755;28;20044;-83
2023/04/19 13:47:39;;;;;;;13.90;11.77;;;13.20;99.90;;;;;;6240636;28;20056;-82
2023/04/19 13:50:40;;;;;;;15.52;10.73;;;13.10;99.90;;;;;;6240249;28;20045;-81
2023/04/19 13:53:42;;;;;;;16.45;11.88;;;13.10;99.90;;;;;;6246903;28;20049;-81
2023/04/19 13:56:44;;;;;;;14.77;11.27;;;13.00;99.90;;;;;;6249407;28;20044;-81
2023/04/19 13:59:45;;;;;;;15.57;11.68;;;13.00;99.90;;;;;;6246152;28;20045;-81
2023/04/19 14:02:49;;;;;;;21.50;14.65;;;12.90;99.90;;;;;;6245645;28;20053;-84
2023/04/19 14:05:50;;;;;;;19.73;13.90;;;12.70;99.90;;;;;;6241616;28;20054;-82
2023/04/19 14:08:52;;;;;;;16.17;13.38;;;12.30;99.90;;;;;;6240729;28;20993;-81
2023/04/19 14:11:54;;;;;;;19.10;14.82;;;12.20;99.90;;;;;;6242163;28;20041;-81
2023/04/19 14:14:55;;;;;;;23.98;15.50;;;12.00;99.90;;;;;;6239653;28;20048;-81
2023/04/19 14:17:59;;;;;;;18.33;15.25;;;12.00;99.90;;;;;;6241432;28;20057;-80
2023/04/19 14:21:01;;;;;;;19.50;15.73;;;12.00;99.90;;;;;;6239109;28;20069;-80
2023/04/19 14:24:03;;;;;;;18.50;16.25;;;11.90;99.90;;;;;;6239650;28;20080;-80
2023/04/19 14:27:05;;;;;;;22.48;16.40;;;11.90;99.90;;;;;;6240512;28;20045;-81
2023/04/19 14:30:08;;;;;;;24.42;16.83;;;11.90;99.90;;;;;;6241984;28;20424;-81
2023/04/19 14:33:11;;;;;;;21.63;17.25;;;12.00;99.90;;;;;;6239614;28;20072;-82
2023/04/19 14:36:14;;;;;;;26.50;18.83;;;11.90;99.90;;;;;;6243937;28;20534;-80
2023/04/19 14:39:16;;;;;;;22.85;17.48;;;12.00;99.90;;;;;;6238505;28;20041;-80
2023/04/19 14:42:18;;;;;;;20.75;17.83;;;12.00;99.90;;;;;;6251755;28;20125;-82
2023/04/19 14:45:20;;;;;;;20.00;16.58;;;12.10;99.90;;;;;;6263040;28;20056;-81
2023/04/19 14:48:23;;;;;;;21.45;17.33;;;12.20;99.90;;;;;;6254952;28;20104;-82
2023/04/19 14:51:24;;;;;;;19.00;14.93;;;12.30;99.90;;;;;;6248477;28;20051;-81
2023/04/19 14:54:26;;;;;;;21.55;15.43;;;12.40;99.90;;;;;;6248755;28;20049;-81
2023/04/19 14:57:28;;;;;;;19.65;15.48;;;12.50;99.90;;;;;;6251811;28;20041;-82
2023/04/19 15:00:30;;;;;;;19.52;14.20;;;12.60;99.90;;;;;;6250693;28;20042;-81
2023/04/19 15:03:33;;;;;;;19.70;14.65;;;12.70;99.90;;;;;;6244503;28;20049;-82
2023/04/19 15:06:35;;;;;;;15.55;13.60;;;12.70;99.90;;;;;;6243867;28;20056;-81
2023/04/19 15:09:37;;;;;;;23.42;14.93;;;13.00;99.90;;;;;;6248080;28;20072;-81
2023/04/19 15:12:38;;;;;;;17.63;13.98;;;13.10;99.90;;;;;;6245472;28;20400;-81
2023/04/19 15:15:40;;;;;;;18.42;12.52;;;13.30;99.90;;;;;;6245167;28;20038;-81
2023/04/19 15:18:43;;;;;;;13.25;11.40;;;13.40;99.90;;;;;;6244592;28;20037;-80
2023/04/19 15:21:45;;;;;;;13.63;10.15;;;13.70;99.90;;;;;;6244467;28;20057;-81
2023/04/19 15:24:46;;;;;;;14.73;10.82;;;13.90;99.90;;;;;;6242779;28;20049;-82
2023/04/19 15:27:48;;;;;;;17.20;11.18;;;13.90;99.90;;;;;;6241868;28;20531;-82
2023/04/19 15:30:58;;;;;;;13.00;10.25;;;14.00;99.90;;;;;;6241454;28;20054;-82
2023/04/19 15:34:02;;;;;;;10.82;9.23;;;14.10;99.90;;;;;;6243523;28;21097;-81
2023/04/19 15:37:05;;;;;;;12.80;10.35;;;14.50;99.90;;;;;;6240010;28;20041;-81
2023/04/19 15:40:08;;;;;;;13.93;9.45;;;14.80;99.90;;;;;;6246383;28;20484;-83
2023/04/19 15:43:10;;;;;;;13.85;10.93;;;14.70;99.90;;;;;;6239238;28;20038;-80